Watson, Minnesota
Current Conditions -  °F | °C
As of 11:54 PM on Sunday 19 Oct 2014 (Local Time) from KMVE Reporting Station
Clear Clear  
Wind Chill: 46°   Ceiling: Unl
Heat Index: 48°   Visibility: 10mi
Dew Point: 39°   Wind: 6mph
Humidity: 71%   Direction: 310°NW
Pressure: 29.96"   Gusts: NA
Location:  45.01°N, 95.8°W
Report Text: KMVE 200454Z AUTO 31005KT 10SM CLR 09/04 A2996 RMK AO2
Loading
Personal Weather Stations






























Interactive Weather Map
Tropical Storm Tracking
New forecast layout! Learn more

10-Day Weather Forecast

Advertisements
Track Severe Weather on mobile